createdAt,value
2022-09-28T00:01:37.036Z,9.32
2022-09-28T00:07:30.836Z,9.28
2022-09-28T00:10:01.074Z,9.29
2022-09-28T00:12:51.664Z,9.27
2022-09-28T00:15:29.903Z,9.25
2022-09-28T00:18:03.176Z,9.20
2022-09-28T00:24:00.968Z,9.18
2022-09-28T00:26:38.871Z,9.21
2022-09-28T00:29:26.690Z,9.22
2022-09-28T00:32:14.419Z,9.23
2022-09-28T00:34:49.471Z,9.22
2022-09-28T00:37:24.396Z,9.25
2022-09-28T00:39:59.745Z,9.28
2022-09-28T00:42:45.222Z,9.29
2022-09-28T00:45:27.437Z,9.31
2022-09-28T00:51:58.797Z,9.37
2022-09-28T00:55:01.687Z,9.39
2022-09-28T00:58:18.193Z,9.43
2022-09-28T01:01:08.931Z,9.40
2022-09-28T01:03:54.369Z,9.44
2022-09-28T01:06:40.268Z,9.46
2022-09-28T01:09:27.682Z,9.48
2022-09-28T01:12:04.362Z,9.50
2022-09-28T01:14:43.291Z,9.54
2022-09-28T01:17:22.623Z,9.56
2022-09-28T01:20:33.071Z,9.59
2022-09-28T01:23:42.751Z,9.63
2022-09-28T01:26:44.515Z,9.63
2022-09-28T01:29:22.493Z,9.66
2022-09-28T01:32:03.805Z,9.68
2022-09-28T01:34:43.933Z,9.67
2022-09-28T01:37:17.575Z,9.69
2022-09-28T01:39:51.066Z,9.71
2022-09-28T01:42:27.263Z,9.70
2022-09-28T01:45:07.487Z,9.69
2022-09-28T01:47:42.261Z,9.67
2022-09-28T01:50:14.898Z,9.70
2022-09-28T01:52:52.435Z,9.71
2022-09-28T01:55:38.510Z,9.71
2022-09-28T01:58:18.587Z,9.67
2022-09-28T02:00:56.465Z,9.69
2022-09-28T02:03:34.996Z,9.68
2022-09-28T02:06:13.710Z,9.69
2022-09-28T02:08:54.715Z,9.69
2022-09-28T02:11:34.099Z,9.67
2022-09-28T02:14:08.245Z,9.66
2022-09-28T02:16:43.474Z,9.65
2022-09-28T02:19:18.951Z,9.63
2022-09-28T02:22:02.712Z,9.63
2022-09-28T02:24:39.469Z,9.64
2022-09-28T02:27:18.837Z,9.63
2022-09-28T02:29:52.713Z,9.59
2022-09-28T02:32:24.039Z,9.61
2022-09-28T02:34:55.002Z,9.56
2022-09-28T02:37:25.919Z,9.58
2022-09-28T02:39:56.656Z,9.60
2022-09-28T02:42:33.535Z,9.61
2022-09-28T02:45:18.275Z,9.61
2022-09-28T02:48:08.821Z,9.62
2022-09-28T02:50:50.307Z,9.56
2022-09-28T02:53:37.429Z,9.55
2022-09-28T02:56:43.177Z,9.57
2022-09-28T02:59:28.125Z,9.59
2022-09-28T03:02:07.318Z,9.58
2022-09-28T03:04:46.701Z,9.60
2022-09-28T03:07:28.879Z,9.61
2022-09-28T03:10:06.261Z,9.62
2022-09-28T03:12:39.534Z,9.61
2022-09-28T03:15:23.241Z,9.62
2022-09-28T03:17:57.209Z,9.54
2022-09-28T03:20:31.624Z,9.51
2022-09-28T03:23:24.659Z,9.47
2022-09-28T03:25:55.107Z,9.46
2022-09-28T03:28:28.785Z,9.47
2022-09-28T03:31:08.711Z,9.43
2022-09-28T03:33:41.453Z,9.40
2022-09-28T03:36:20.426Z,9.40
2022-09-28T03:38:49.192Z,9.41
2022-09-28T03:41:22.944Z,9.37
2022-09-28T03:43:56.154Z,9.38
2022-09-28T03:46:27.910Z,9.39
2022-09-28T03:49:02.623Z,9.41
2022-09-28T03:51:32.150Z,9.44
2022-09-28T03:54:02.293Z,9.46
2022-09-28T03:56:36.330Z,9.46
2022-09-28T03:59:06.151Z,9.39
2022-09-28T04:01:36.875Z,9.36
2022-09-28T04:04:15.601Z,9.34
2022-09-28T04:06:46.369Z,9.31
2022-09-28T04:09:15.427Z,9.25
2022-09-28T04:12:02.867Z,9.21
2022-09-28T04:14:34.015Z,9.20
2022-09-28T04:17:08.387Z,9.16
2022-09-28T04:22:51.840Z,9.19
2022-09-28T04:25:25.273Z,9.17
2022-09-28T04:28:16.170Z,9.16
2022-09-28T04:30:48.721Z,9.17
2022-09-28T04:33:23.651Z,9.19
2022-09-28T04:35:58.469Z,9.21
2022-09-28T04:38:51.719Z,9.21
2022-09-28T04:41:25.497Z,9.24
2022-09-28T04:43:57.215Z,9.26
2022-09-28T04:46:27.639Z,9.27
2022-09-28T04:49:29.701Z,9.27
2022-09-28T04:52:27.965Z,9.25
2022-09-28T04:55:10.385Z,9.26
2022-09-28T04:57:43.266Z,9.28
2022-09-28T05:00:22.320Z,9.28
2022-09-28T05:03:07.666Z,9.30
2022-09-28T05:05:55.811Z,9.29
2022-09-28T05:08:52.069Z,9.23
2022-09-28T05:11:21.766Z,9.19
2022-09-28T05:13:57.021Z,9.19
2022-09-28T05:16:30.130Z,9.18
2022-09-28T05:19:17.917Z,9.21
2022-09-28T05:21:49.197Z,9.22
2022-09-28T05:24:27.351Z,9.25
2022-09-28T05:26:58.094Z,9.29
2022-09-28T05:29:31.904Z,9.30
2022-09-28T05:32:23.386Z,9.29
2022-09-28T05:35:19.269Z,9.28
2022-09-28T05:37:53.673Z,9.28
2022-09-28T05:40:30.128Z,9.27
2022-09-28T05:43:02.626Z,9.28
2022-09-28T05:45:35.807Z,9.26
2022-09-28T05:48:08.956Z,9.25
2022-09-28T05:50:36.944Z,9.27
2022-09-28T05:53:10.277Z,9.30
2022-09-28T05:55:47.077Z,9.31
2022-09-28T05:58:19.491Z,9.36
2022-09-28T06:00:49.670Z,9.39
2022-09-28T06:03:19.137Z,9.40
2022-09-28T06:05:47.987Z,9.41
2022-09-28T06:08:18.049Z,9.46
2022-09-28T06:11:16.746Z,9.49
2022-09-28T06:13:51.219Z,9.49
2022-09-28T06:16:30.296Z,9.52
2022-09-28T06:19:00.571Z,9.58
2022-09-28T06:21:59.352Z,9.58
2022-09-28T06:24:28.426Z,9.62
2022-09-28T06:27:04.884Z,9.66
2022-09-28T06:29:34.380Z,9.71
2022-09-28T06:32:07.323Z,9.77
2022-09-28T06:34:38.783Z,9.89
2022-09-28T06:37:09.808Z,10.12
2022-09-28T06:39:39.569Z,10.42
2022-09-28T06:42:11.067Z,10.64
2022-09-28T06:45:00.025Z,11.12
2022-09-28T06:47:48.690Z,11.88
2022-09-28T06:50:31.035Z,12.60
2022-09-28T06:53:15.196Z,13.46
2022-09-28T06:55:52.937Z,14.16
2022-09-28T06:58:27.348Z,14.80
2022-09-28T07:01:06.217Z,15.47
2022-09-28T07:04:02.838Z,16.27
2022-09-28T07:06:51.241Z,16.77
2022-09-28T07:09:51.342Z,17.33
2022-09-28T07:12:55.826Z,17.91
2022-09-28T07:15:36.284Z,18.35
2022-09-28T07:18:07.162Z,18.59
2022-09-28T07:20:51.917Z,19.02
2022-09-28T07:23:24.522Z,19.36
2022-09-28T07:26:28.791Z,19.63
2022-09-28T07:29:05.621Z,20.00
2022-09-28T07:32:00.130Z,20.36
2022-09-28T07:34:43.989Z,20.58
2022-09-28T07:37:26.748Z,20.59
2022-09-28T07:40:13.859Z,20.68
2022-09-28T07:42:42.198Z,20.19
2022-09-28T07:45:11.753Z,19.38
2022-09-28T07:47:40.872Z,18.56
2022-09-28T07:50:28.939Z,17.84
2022-09-28T07:53:15.043Z,17.24
2022-09-28T07:56:07.168Z,16.84
2022-09-28T07:58:41.744Z,16.61
2022-09-28T08:01:32.853Z,16.34
2022-09-28T08:04:02.973Z,16.10
2022-09-28T08:06:31.702Z,16.01
2022-09-28T08:09:02.196Z,15.89
2022-09-28T08:11:55.857Z,15.70
2022-09-28T08:14:42.287Z,15.50
2022-09-28T08:17:30.236Z,15.47
2022-09-28T08:20:19.504Z,15.44
2022-09-28T08:22:47.575Z,15.39
2022-09-28T08:25:15.480Z,15.30
2022-09-28T08:27:44.267Z,15.20
2022-09-28T08:30:13.024Z,15.04
2022-09-28T08:32:49.407Z,14.90
2022-09-28T08:35:39.013Z,14.74
2022-09-28T08:38:41.906Z,14.68
2022-09-28T08:41:49.563Z,14.63
2022-09-28T08:48:11.150Z,14.24
2022-09-28T08:51:06.228Z,14.19
2022-09-28T08:53:49.485Z,14.18
2022-09-28T08:56:40.641Z,14.19
2022-09-28T08:59:15.085Z,14.14
2022-09-28T09:01:51.002Z,14.13
2022-09-28T09:04:19.099Z,14.12
2022-09-28T09:07:39.987Z,13.99
2022-09-28T09:10:39.488Z,14.03
2022-09-28T09:13:20.117Z,13.97
2022-09-28T09:15:55.217Z,13.86
2022-09-28T09:18:50.575Z,13.82
2022-09-28T09:21:40.992Z,13.75
2022-09-28T09:24:25.088Z,13.75
2022-09-28T09:27:03.007Z,13.79
2022-09-28T09:29:44.780Z,13.82
2022-09-28T09:32:37.886Z,13.85
2022-09-28T09:35:20.969Z,13.79
2022-09-28T09:38:24.704Z,13.86
2022-09-28T09:41:26.602Z,14.13
2022-09-28T09:44:30.798Z,14.92
2022-09-28T09:47:23.825Z,16.08
2022-09-28T09:50:06.987Z,17.26
2022-09-28T09:52:47.769Z,18.11
2022-09-28T09:55:21.252Z,18.86
2022-09-28T09:58:01.190Z,19.75
2022-09-28T10:00:36.196Z,20.52
2022-09-28T10:03:22.467Z,21.07
2022-09-28T10:05:57.331Z,21.39
2022-09-28T10:08:27.790Z,21.23
2022-09-28T10:11:08.563Z,21.10
2022-09-28T10:13:41.503Z,20.92
2022-09-28T10:16:29.275Z,20.20
2022-09-28T10:19:01.031Z,19.76
2022-09-28T10:21:48.727Z,19.37
2022-09-28T10:24:32.297Z,18.84
2022-09-28T10:27:06.655Z,18.33
2022-09-28T10:29:46.925Z,18.13
2022-09-28T10:32:20.541Z,17.76
2022-09-28T10:34:50.875Z,17.61
2022-09-28T10:37:20.942Z,17.61
2022-09-28T10:40:30.565Z,17.45
2022-09-28T10:43:04.082Z,17.47
2022-09-28T10:45:38.705Z,17.60
2022-09-28T10:48:14.973Z,17.56
2022-09-28T10:50:44.152Z,17.40
2022-09-28T10:53:20.395Z,16.93
2022-09-28T10:56:21.809Z,16.59
2022-09-28T10:58:54.432Z,16.33
2022-09-28T11:01:34.649Z,16.00
2022-09-28T11:04:08.110Z,15.79
2022-09-28T11:06:38.835Z,15.63
2022-09-28T11:09:22.231Z,15.48
2022-09-28T11:11:50.562Z,15.42
2022-09-28T11:14:27.288Z,15.23
2022-09-28T11:17:18.826Z,15.11
2022-09-28T11:19:48.153Z,15.13
2022-09-28T11:22:26.240Z,15.22
2022-09-28T11:25:21.939Z,15.02
2022-09-28T11:28:04.441Z,14.81
2022-09-28T11:30:36.292Z,14.72
2022-09-28T11:33:28.798Z,14.95
2022-09-28T11:39:37.127Z,15.03
2022-09-28T11:42:16.447Z,15.08
2022-09-28T11:44:47.216Z,15.10
2022-09-28T11:47:52.657Z,15.12
2022-09-28T11:50:39.874Z,15.17
2022-09-28T11:53:19.678Z,15.04
2022-09-28T11:55:55.905Z,14.98
2022-09-28T11:58:41.111Z,14.83
2022-09-28T12:01:21.608Z,14.69
2022-09-28T12:04:15.198Z,14.76
2022-09-28T12:06:50.208Z,14.76
2022-09-28T12:09:25.988Z,14.77
2022-09-28T12:12:03.613Z,14.68
2022-09-28T12:14:46.610Z,14.51
2022-09-28T12:17:22.634Z,14.37
2022-09-28T12:19:55.914Z,14.29
2022-09-28T12:22:33.175Z,14.13
2022-09-28T12:25:04.554Z,13.96
2022-09-28T12:27:41.367Z,13.73
2022-09-28T12:30:16.153Z,13.63
2022-09-28T12:32:46.023Z,13.56
2022-09-28T12:35:16.093Z,13.62
2022-09-28T12:38:23.486Z,13.79
2022-09-28T12:40:59.419Z,13.93
2022-09-28T12:43:54.646Z,14.04
2022-09-28T12:46:49.052Z,14.09
2022-09-28T12:52:33.990Z,14.20
2022-09-28T12:55:19.652Z,14.16
2022-09-28T12:58:01.394Z,14.06
2022-09-28T13:00:41.594Z,13.97
2022-09-28T13:03:45.986Z,14.01
2022-09-28T13:06:55.724Z,14.07
2022-09-28T13:09:26.196Z,13.90
2022-09-28T13:12:06.938Z,13.80
2022-09-28T13:15:09.918Z,13.68
2022-09-28T13:17:47.346Z,13.54
2022-09-28T13:20:23.313Z,13.51
2022-09-28T13:22:58.406Z,13.33
2022-09-28T13:25:29.960Z,13.18
2022-09-28T13:28:02.857Z,13.25
2022-09-28T13:30:31.677Z,13.37
2022-09-28T13:33:02.158Z,13.35
2022-09-28T13:35:30.287Z,13.38
2022-09-28T13:38:41.602Z,13.34
2022-09-28T13:41:27.928Z,13.42
2022-09-28T13:44:30.811Z,13.32
2022-09-28T13:47:21.052Z,13.25
2022-09-28T13:50:08.481Z,13.17
2022-09-28T13:52:51.608Z,13.18
2022-09-28T13:55:39.849Z,13.13
2022-09-28T13:58:26.978Z,13.17
2022-09-28T14:01:22.197Z,13.20
2022-09-28T14:04:21.922Z,13.30
2022-09-28T14:07:16.179Z,13.28
2022-09-28T14:12:55.554Z,13.25
2022-09-28T14:15:45.662Z,13.33
2022-09-28T14:18:50.206Z,13.41
2022-09-28T14:22:09.613Z,13.58
2022-09-28T14:25:00.399Z,13.72
2022-09-28T14:27:50.935Z,13.79
2022-09-28T14:30:40.423Z,13.85
2022-09-28T14:36:51.920Z,13.95
2022-09-28T14:39:42.125Z,13.99
2022-09-28T14:42:16.234Z,14.03
2022-09-28T14:45:37.450Z,14.05
2022-09-28T14:48:24.285Z,14.04
2022-09-28T14:50:58.210Z,13.99
2022-09-28T14:53:31.834Z,13.90
2022-09-28T14:56:10.803Z,13.83
2022-09-28T14:58:44.219Z,13.82
2022-09-28T15:01:32.097Z,13.77
2022-09-28T15:04:23.143Z,13.82
2022-09-28T15:06:55.079Z,13.90
2022-09-28T15:09:40.138Z,13.79
2022-09-28T15:12:22.152Z,13.74
2022-09-28T15:14:58.785Z,13.69
2022-09-28T15:17:37.034Z,13.60
2022-09-28T15:20:29.854Z,13.51
2022-09-28T15:23:11.667Z,13.44
2022-09-28T15:25:42.771Z,13.42
2022-09-28T15:28:22.928Z,13.42
2022-09-28T15:30:55.598Z,13.37
2022-09-28T15:33:46.868Z,13.14
2022-09-28T15:36:24.227Z,12.93
2022-09-28T15:39:00.054Z,12.80
2022-09-28T15:41:33.487Z,12.77
2022-09-28T15:44:11.270Z,12.79
2022-09-28T15:46:45.172Z,12.80
2022-09-28T15:49:26.980Z,12.75
2022-09-28T15:52:04.948Z,12.70
2022-09-28T15:54:48.730Z,12.63
2022-09-28T15:57:38.315Z,12.60
2022-09-28T16:00:28.995Z,12.56
2022-09-28T16:06:18.493Z,12.59
2022-09-28T16:09:00.088Z,12.57
2022-09-28T16:11:42.097Z,12.60
2022-09-28T16:14:25.728Z,12.60
2022-09-28T16:16:59.607Z,12.48
2022-09-28T16:19:35.450Z,12.34
2022-09-28T16:22:36.562Z,12.32
2022-09-28T16:25:25.670Z,12.27
2022-09-28T16:27:57.981Z,12.23
2022-09-28T16:30:41.076Z,12.19
2022-09-28T16:33:30.021Z,12.13
2022-09-28T16:36:06.540Z,12.16
2022-09-28T16:38:39.100Z,12.14
2022-09-28T16:41:12.914Z,12.10
2022-09-28T16:43:43.590Z,12.08
2022-09-28T16:46:18.606Z,12.06
2022-09-28T16:48:50.714Z,12.06
2022-09-28T16:51:20.777Z,12.11
2022-09-28T16:54:08.300Z,12.13
2022-09-28T16:56:40.376Z,12.12
2022-09-28T16:59:13.999Z,12.11
2022-09-28T17:01:45.788Z,12.12
2022-09-28T17:04:17.707Z,12.13
2022-09-28T17:06:47.983Z,12.08
2022-09-28T17:09:18.899Z,12.07
2022-09-28T17:11:57.292Z,12.06
2022-09-28T17:14:36.854Z,12.01
2022-09-28T17:17:19.205Z,11.97
2022-09-28T17:19:46.992Z,11.94
2022-09-28T17:22:18.764Z,11.90
2022-09-28T17:24:49.788Z,11.89
2022-09-28T17:27:25.604Z,11.90
2022-09-28T17:29:56.924Z,11.93
2022-09-28T17:32:26.829Z,11.94
2022-09-28T17:35:22.609Z,11.92
2022-09-28T17:37:52.745Z,11.91
2022-09-28T17:40:26.809Z,11.92
2022-09-28T17:42:59.676Z,11.91
2022-09-28T17:45:33.316Z,11.91
2022-09-28T17:48:05.845Z,11.88
2022-09-28T17:50:37.438Z,11.86
2022-09-28T17:53:11.136Z,11.87
2022-09-28T17:55:44.450Z,11.85
2022-09-28T17:58:25.285Z,11.80
2022-09-28T18:01:14.466Z,11.78
2022-09-28T18:03:47.249Z,11.74
2022-09-28T18:06:22.519Z,11.72
2022-09-28T18:08:53.764Z,11.68
2022-09-28T18:11:25.202Z,11.67
2022-09-28T18:14:11.301Z,11.66
2022-09-28T18:16:41.184Z,11.67
2022-09-28T18:19:18.407Z,11.66
2022-09-28T18:21:47.353Z,11.65
2022-09-28T18:24:24.864Z,11.60
2022-09-28T18:27:02.027Z,11.57
2022-09-28T18:29:46.486Z,11.56
2022-09-28T18:32:27.989Z,11.55
2022-09-28T18:35:04.348Z,11.54
2022-09-28T18:37:42.623Z,11.52
2022-09-28T18:40:22.463Z,11.51
2022-09-28T18:43:07.787Z,11.51
2022-09-28T18:45:39.852Z,11.49
2022-09-28T18:48:10.257Z,11.49
2022-09-28T18:50:42.660Z,11.48
2022-09-28T18:53:20.898Z,11.47
2022-09-28T18:55:48.891Z,11.46
2022-09-28T18:58:21.205Z,11.42
2022-09-28T19:00:51.558Z,11.43
2022-09-28T19:03:22.032Z,11.41
2022-09-28T19:05:53.760Z,11.39
2022-09-28T19:08:27.915Z,11.38
2022-09-28T19:11:06.574Z,11.37
2022-09-28T19:13:38.634Z,11.34
2022-09-28T19:16:12.958Z,11.31
2022-09-28T19:18:45.246Z,11.28
2022-09-28T19:21:18.032Z,11.19
2022-09-28T19:23:49.292Z,11.09
2022-09-28T19:26:21.778Z,11.04
2022-09-28T19:28:53.502Z,10.98
2022-09-28T19:31:23.838Z,10.97
2022-09-28T19:34:02.889Z,10.98
2022-09-28T19:36:32.956Z,10.96
2022-09-28T19:39:05.190Z,10.96
2022-09-28T19:41:47.644Z,10.95
2022-09-28T19:44:25.473Z,10.94
2022-09-28T19:47:10.557Z,10.87
2022-09-28T19:49:43.658Z,10.84
2022-09-28T19:52:28.383Z,10.84
2022-09-28T19:55:15.202Z,10.80
2022-09-28T19:57:48.777Z,10.78
2022-09-28T20:00:29.595Z,10.77
2022-09-28T20:03:09.653Z,10.76
2022-09-28T20:05:42.587Z,10.72
2022-09-28T20:08:19.228Z,10.67
2022-09-28T20:11:03.671Z,10.61
2022-09-28T20:13:33.523Z,10.60
2022-09-28T20:16:09.670Z,10.59
2022-09-28T20:18:43.707Z,10.54
2022-09-28T20:21:18.033Z,10.53
2022-09-28T20:23:50.295Z,10.48
2022-09-28T20:26:29.729Z,10.39
2022-09-28T20:28:59.704Z,10.36
2022-09-28T20:31:28.901Z,10.30
2022-09-28T20:33:58.817Z,10.28
2022-09-28T20:36:27.116Z,10.27
2022-09-28T20:38:57.507Z,10.25
2022-09-28T20:41:29.141Z,10.23
2022-09-28T20:44:04.863Z,10.21
2022-09-28T20:46:33.719Z,10.20
2022-09-28T20:49:08.109Z,10.20
2022-09-28T20:51:35.901Z,10.19
2022-09-28T20:54:03.642Z,10.14
2022-09-28T20:56:37.930Z,10.13
2022-09-28T20:59:10.462Z,10.09
2022-09-28T21:01:38.210Z,10.04
2022-09-28T21:04:10.096Z,9.99
2022-09-28T21:11:54.632Z,9.93
2022-09-28T21:14:46.744Z,9.97
2022-09-28T21:17:19.634Z,9.98
2022-09-28T21:19:55.281Z,10.00
2022-09-28T21:22:46.193Z,10.03
2022-09-28T21:25:35.970Z,10.06
2022-09-28T21:28:52.680Z,10.06
2022-09-28T21:31:40.673Z,10.11
2022-09-28T21:35:04.172Z,10.13
2022-09-28T21:37:40.381Z,10.13
2022-09-28T21:40:13.644Z,10.11
2022-09-28T21:42:47.955Z,10.10
2022-09-28T21:45:27.805Z,10.10
2022-09-28T21:48:10.126Z,10.09
2022-09-28T21:51:22.428Z,10.08
2022-09-28T22:06:46.458Z,10.02
2022-09-28T22:09:40.156Z,10.01
2022-09-28T22:15:36.267Z,9.99
2022-09-28T22:18:35.730Z,9.96
2022-09-28T22:21:41.859Z,9.92
2022-09-28T22:24:45.166Z,9.90
2022-09-28T22:27:42.017Z,9.89
2022-09-28T22:30:53.973Z,9.88
2022-09-28T22:33:45.437Z,9.87
2022-09-28T22:36:28.612Z,9.86
2022-09-28T22:39:21.385Z,9.85
2022-09-28T22:42:09.220Z,9.85
2022-09-28T22:44:39.072Z,9.86
2022-09-28T22:47:06.999Z,9.85
2022-09-28T22:49:34.810Z,9.85
2022-09-28T22:52:03.563Z,9.85
2022-09-28T22:54:34.675Z,9.83
2022-09-28T22:57:03.075Z,9.83
2022-09-28T22:59:35.578Z,9.83
2022-09-28T23:02:03.466Z,9.84
2022-09-28T23:04:32.343Z,9.84
2022-09-28T23:07:01.181Z,9.84
2022-09-28T23:09:29.353Z,9.82
2022-09-28T23:11:57.628Z,9.81
2022-09-28T23:14:29.744Z,9.80
2022-09-28T23:16:59.363Z,9.75
2022-09-28T23:19:27.187Z,9.75
2022-09-28T23:21:55.399Z,9.74
2022-09-28T23:24:23.674Z,9.70
2022-09-28T23:26:51.803Z,9.69
2022-09-28T23:29:19.707Z,9.66
2022-09-28T23:31:47.637Z,9.61
2022-09-28T23:34:20.583Z,9.56
2022-09-28T23:36:48.438Z,9.54
2022-09-28T23:39:16.242Z,9.47
2022-09-28T23:41:43.971Z,9.41
2022-09-28T23:44:19.250Z,9.40
2022-09-28T23:46:52.548Z,9.38
2022-09-28T23:49:27.093Z,9.36
2022-09-28T23:51:59.672Z,9.35
2022-09-28T23:54:33.941Z,9.33
2022-09-28T23:57:06.708Z,9.29
2022-09-28T23:59:39.289Z,9.26
